sensor_id;sensor_type;location;lat;lon;timestamp;temperature;humidity
45983;DHT22;31711;47.158;7.346;2023-08-20T00:00:29;21.90;99.90
45983;DHT22;31711;47.158;7.346;2023-08-20T00:03:04;21.90;99.90
45983;DHT22;31711;47.158;7.346;2023-08-20T00:05:34;21.90;99.90
45983;DHT22;31711;47.158;7.346;2023-08-20T00:08:00;21.90;99.90
45983;DHT22;31711;47.158;7.346;2023-08-20T00:10:26;21.80;99.90
45983;DHT22;31711;47.158;7.346;2023-08-20T00:12:52;21.70;99.90
45983;DHT22;31711;47.158;7.346;2023-08-20T00:15:18;21.70;99.90
45983;DHT22;31711;47.158;7.346;2023-08-20T00:17:45;21.60;99.90
45983;DHT22;31711;47.158;7.346;2023-08-20T00:20:14;21.60;99.90
45983;DHT22;31711;47.158;7.346;2023-08-20T00:22:41;21.60;99.90
45983;DHT22;31711;47.158;7.346;2023-08-20T00:25:12;21.60;99.90
45983;DHT22;31711;47.158;7.346;2023-08-20T00:27:39;21.50;99.90
45983;DHT22;31711;47.158;7.346;2023-08-20T00:30:06;21.40;99.90
45983;DHT22;31711;47.158;7.346;2023-08-20T00:32:32;21.40;99.90
45983;DHT22;31711;47.158;7.346;2023-08-20T00:34:58;21.40;99.90
45983;DHT22;31711;47.158;7.346;2023-08-20T00:37:25;21.40;99.90
45983;DHT22;31711;47.158;7.346;2023-08-20T00:39:51;21.40;99.90
45983;DHT22;31711;47.158;7.346;2023-08-20T00:42:17;21.40;99.90
45983;DHT22;31711;47.158;7.346;2023-08-20T00:44:43;21.30;99.90
45983;DHT22;31711;47.158;7.346;2023-08-20T00:47:13;21.30;99.90
45983;DHT22;31711;47.158;7.346;2023-08-20T00:49:40;21.40;99.90
45983;DHT22;31711;47.158;7.346;2023-08-20T00:52:08;21.20;99.90
45983;DHT22;31711;47.158;7.346;2023-08-20T00:54:35;21.20;99.90
45983;DHT22;31711;47.158;7.346;2023-08-20T00:57:02;21.20;99.90
45983;DHT22;31711;47.158;7.346;2023-08-20T00:59:32;21.20;99.90
45983;DHT22;31711;47.158;7.346;2023-08-20T01:01:58;21.10;99.90
45983;DHT22;31711;47.158;7.346;2023-08-20T01:04:24;21.10;99.90
45983;DHT22;31711;47.158;7.346;2023-08-20T01:06:55;21.10;99.90
45983;DHT22;31711;47.158;7.346;2023-08-20T01:11:56;21.10;99.90
45983;DHT22;31711;47.158;7.346;2023-08-20T01:14:23;21.00;99.90
45983;DHT22;31711;47.158;7.346;2023-08-20T01:16:49;20.90;99.90
45983;DHT22;31711;47.158;7.346;2023-08-20T01:19:19;20.80;99.90
45983;DHT22;31711;47.158;7.346;2023-08-20T01:24:32;20.80;99.90
45983;DHT22;31711;47.158;7.346;2023-08-20T01:29:55;20.80;99.90
45983;DHT22;31711;47.158;7.346;2023-08-20T01:32:22;20.80;99.90
45983;DHT22;31711;47.158;7.346;2023-08-20T01:34:49;20.80;99.90
45983;DHT22;31711;47.158;7.346;2023-08-20T01:37:16;20.80;99.90
45983;DHT22;31711;47.158;7.346;2023-08-20T01:39:42;20.80;99.90
45983;DHT22;31711;47.158;7.346;2023-08-20T01:42:08;20.70;99.90
45983;DHT22;31711;47.158;7.346;2023-08-20T01:44:34;20.60;99.90
45983;DHT22;31711;47.158;7.346;2023-08-20T01:47:00;20.40;99.90
45983;DHT22;31711;47.158;7.346;2023-08-20T01:49:26;20.30;99.90
45983;DHT22;31711;47.158;7.346;2023-08-20T01:51:52;20.30;99.90
45983;DHT22;31711;47.158;7.346;2023-08-20T01:54:18;20.40;99.90
45983;DHT22;31711;47.158;7.346;2023-08-20T01:56:44;20.40;99.90
45983;DHT22;31711;47.158;7.346;2023-08-20T01:59:10;20.40;99.90
45983;DHT22;31711;47.158;7.346;2023-08-20T02:01:36;20.50;99.90
45983;DHT22;31711;47.158;7.346;2023-08-20T02:04:02;20.50;99.90
45983;DHT22;31711;47.158;7.346;2023-08-20T02:06:28;20.60;99.90
45983;DHT22;31711;47.158;7.346;2023-08-20T02:08:54;20.50;99.90
45983;DHT22;31711;47.158;7.346;2023-08-20T02:11:20;20.50;99.90
45983;DHT22;31711;47.158;7.346;2023-08-20T02:13:46;20.50;99.90
45983;DHT22;31711;47.158;7.346;2023-08-20T02:16:12;20.50;99.90
45983;DHT22;31711;47.158;7.346;2023-08-20T02:18:38;20.50;99.90
45983;DHT22;31711;47.158;7.346;2023-08-20T02:21:04;20.50;99.90
45983;DHT22;31711;47.158;7.346;2023-08-20T02:23:30;20.50;99.90
45983;DHT22;31711;47.158;7.346;2023-08-20T02:25:56;20.50;99.90
45983;DHT22;31711;47.158;7.346;2023-08-20T02:28:23;20.40;99.90
45983;DHT22;31711;47.158;7.346;2023-08-20T02:30:49;20.30;99.90
45983;DHT22;31711;47.158;7.346;2023-08-20T02:33:15;20.10;99.90
45983;DHT22;31711;47.158;7.346;2023-08-20T02:35:41;20.20;99.90
45983;DHT22;31711;47.158;7.346;2023-08-20T02:38:08;20.20;99.90
45983;DHT22;31711;47.158;7.346;2023-08-20T02:40:42;20.30;99.90
45983;DHT22;31711;47.158;7.346;2023-08-20T02:43:08;20.30;99.90
45983;DHT22;31711;47.158;7.346;2023-08-20T02:45:42;20.20;99.90
45983;DHT22;31711;47.158;7.346;2023-08-20T02:48:08;20.30;99.90
45983;DHT22;31711;47.158;7.346;2023-08-20T02:50:35;20.30;99.90
45983;DHT22;31711;47.158;7.346;2023-08-20T02:53:01;20.30;99.90
45983;DHT22;31711;47.158;7.346;2023-08-20T02:55:27;20.30;99.90
45983;DHT22;31711;47.158;7.346;2023-08-20T02:57:52;20.30;99.90
45983;DHT22;31711;47.158;7.346;2023-08-20T03:00:18;20.20;99.90
45983;DHT22;31711;47.158;7.346;2023-08-20T03:02:44;20.20;99.90
45983;DHT22;31711;47.158;7.346;2023-08-20T03:05:10;20.10;99.90
45983;DHT22;31711;47.158;7.346;2023-08-20T03:07:36;20.10;99.90
45983;DHT22;31711;47.158;7.346;2023-08-20T03:10:02;20.00;99.90
45983;DHT22;31711;47.158;7.346;2023-08-20T03:12:29;20.00;99.90
45983;DHT22;31711;47.158;7.346;2023-08-20T03:14:55;19.90;99.90
45983;DHT22;31711;47.158;7.346;2023-08-20T03:17:21;20.00;99.90
45983;DHT22;31711;47.158;7.346;2023-08-20T03:19:58;20.00;99.90
45983;DHT22;31711;47.158;7.346;2023-08-20T03:22:25;20.10;99.90
45983;DHT22;31711;47.158;7.346;2023-08-20T03:24:52;20.10;99.90
45983;DHT22;31711;47.158;7.346;2023-08-20T03:27:18;20.10;99.90
45983;DHT22;31711;47.158;7.346;2023-08-20T03:29:44;20.10;99.90
45983;DHT22;31711;47.158;7.346;2023-08-20T03:32:11;20.10;99.90
45983;DHT22;31711;47.158;7.346;2023-08-20T03:34:37;20.10;99.90
45983;DHT22;31711;47.158;7.346;2023-08-20T03:37:04;20.10;99.90
45983;DHT22;31711;47.158;7.346;2023-08-20T03:39:30;20.10;99.90
45983;DHT22;31711;47.158;7.346;2023-08-20T03:41:57;20.20;99.90
45983;DHT22;31711;47.158;7.346;2023-08-20T03:44:23;20.20;99.90
45983;DHT22;31711;47.158;7.346;2023-08-20T03:46:49;20.10;99.90
45983;DHT22;31711;47.158;7.346;2023-08-20T03:49:15;20.10;99.90
45983;DHT22;31711;47.158;7.346;2023-08-20T03:51:41;20.10;99.90
45983;DHT22;31711;47.158;7.346;2023-08-20T03:54:09;20.10;99.90
45983;DHT22;31711;47.158;7.346;2023-08-20T03:56:35;20.00;99.90
45983;DHT22;31711;47.158;7.346;2023-08-20T03:59:01;20.00;99.90
45983;DHT22;31711;47.158;7.346;2023-08-20T04:01:28;20.00;99.90
45983;DHT22;31711;47.158;7.346;2023-08-20T04:03:54;20.00;99.90
45983;DHT22;31711;47.158;7.346;2023-08-20T04:06:20;20.00;99.90
45983;DHT22;31711;47.158;7.346;2023-08-20T04:08:46;19.90;99.90
45983;DHT22;31711;47.158;7.346;2023-08-20T04:11:12;20.00;99.90
45983;DHT22;31711;47.158;7.346;2023-08-20T04:13:38;20.00;99.90
45983;DHT22;31711;47.158;7.346;2023-08-20T04:16:05;19.90;99.90
45983;DHT22;31711;47.158;7.346;2023-08-20T04:18:31;19.90;99.90
45983;DHT22;31711;47.158;7.346;2023-08-20T04:20:57;19.90;99.90
45983;DHT22;31711;47.158;7.346;2023-08-20T04:23:23;19.80;99.90
45983;DHT22;31711;47.158;7.346;2023-08-20T04:25:49;19.80;99.90
45983;DHT22;31711;47.158;7.346;2023-08-20T04:28:15;19.80;99.90
45983;DHT22;31711;47.158;7.346;2023-08-20T04:30:41;19.80;99.90
45983;DHT22;31711;47.158;7.346;2023-08-20T04:33:07;19.80;99.90
45983;DHT22;31711;47.158;7.346;2023-08-20T04:35:33;19.70;99.90
45983;DHT22;31711;47.158;7.346;2023-08-20T04:37:59;19.70;99.90
45983;DHT22;31711;47.158;7.346;2023-08-20T04:40:25;19.60;99.90
45983;DHT22;31711;47.158;7.346;2023-08-20T04:42:51;19.50;99.90
45983;DHT22;31711;47.158;7.346;2023-08-20T04:45:17;19.50;99.90
45983;DHT22;31711;47.158;7.346;2023-08-20T04:47:48;19.40;99.90
45983;DHT22;31711;47.158;7.346;2023-08-20T04:50:14;19.50;99.90
45983;DHT22;31711;47.158;7.346;2023-08-20T04:52:40;19.50;99.90
45983;DHT22;31711;47.158;7.346;2023-08-20T04:55:06;19.60;99.90
45983;DHT22;31711;47.158;7.346;2023-08-20T04:57:34;19.60;99.90
45983;DHT22;31711;47.158;7.346;2023-08-20T05:00:00;19.60;99.90
45983;DHT22;31711;47.158;7.346;2023-08-20T05:02:25;19.50;99.90
45983;DHT22;31711;47.158;7.346;2023-08-20T05:04:52;19.50;99.90
45983;DHT22;31711;47.158;7.346;2023-08-20T05:07:18;19.60;99.90
45983;DHT22;31711;47.158;7.346;2023-08-20T05:09:44;19.60;99.90
45983;DHT22;31711;47.158;7.346;2023-08-20T05:12:10;19.70;99.90
45983;DHT22;31711;47.158;7.346;2023-08-20T05:14:35;19.70;99.90
45983;DHT22;31711;47.158;7.346;2023-08-20T05:17:01;19.70;99.90
45983;DHT22;31711;47.158;7.346;2023-08-20T05:19:28;19.80;99.90
45983;DHT22;31711;47.158;7.346;2023-08-20T05:21:56;19.90;99.90
45983;DHT22;31711;47.158;7.346;2023-08-20T05:24:36;19.80;99.90
45983;DHT22;31711;47.158;7.346;2023-08-20T05:27:14;19.60;99.90
45983;DHT22;31711;47.158;7.346;2023-08-20T05:29:41;19.50;99.90
45983;DHT22;31711;47.158;7.346;2023-08-20T05:32:13;19.60;99.90
45983;DHT22;31711;47.158;7.346;2023-08-20T05:34:40;19.80;99.90
45983;DHT22;31711;47.158;7.346;2023-08-20T05:37:06;20.00;99.90
45983;DHT22;31711;47.158;7.346;2023-08-20T05:39:37;20.00;99.90
45983;DHT22;31711;47.158;7.346;2023-08-20T05:42:04;20.10;99.90
45983;DHT22;31711;47.158;7.346;2023-08-20T05:44:30;20.10;99.90
45983;DHT22;31711;47.158;7.346;2023-08-20T05:46:57;20.10;99.90
45983;DHT22;31711;47.158;7.346;2023-08-20T05:49:22;20.40;99.90
45983;DHT22;31711;47.158;7.346;2023-08-20T05:51:48;20.50;99.90
45983;DHT22;31711;47.158;7.346;2023-08-20T05:54:14;20.60;99.90
45983;DHT22;31711;47.158;7.346;2023-08-20T05:56:40;20.70;99.90
45983;DHT22;31711;47.158;7.346;2023-08-20T05:59:06;20.80;99.90
45983;DHT22;31711;47.158;7.346;2023-08-20T06:01:32;20.80;99.90
45983;DHT22;31711;47.158;7.346;2023-08-20T06:03:58;20.90;99.90
45983;DHT22;31711;47.158;7.346;2023-08-20T06:06:26;20.90;99.90
45983;DHT22;31711;47.158;7.346;2023-08-20T06:08:52;21.00;99.90
45983;DHT22;31711;47.158;7.346;2023-08-20T06:11:19;21.10;99.90
45983;DHT22;31711;47.158;7.346;2023-08-20T06:13:46;21.10;99.90
45983;DHT22;31711;47.158;7.346;2023-08-20T06:16:12;21.30;99.90
45983;DHT22;31711;47.158;7.346;2023-08-20T06:18:38;21.40;99.90
45983;DHT22;31711;47.158;7.346;2023-08-20T06:21:04;21.50;99.90
45983;DHT22;31711;47.158;7.346;2023-08-20T06:23:30;21.50;99.90
45983;DHT22;31711;47.158;7.346;2023-08-20T06:25:56;21.60;99.90
45983;DHT22;31711;47.158;7.346;2023-08-20T06:28:22;21.80;99.90
45983;DHT22;31711;47.158;7.346;2023-08-20T06:30:48;21.90;99.90
45983;DHT22;31711;47.158;7.346;2023-08-20T06:33:13;21.90;99.90
45983;DHT22;31711;47.158;7.346;2023-08-20T06:35:40;21.90;99.90
45983;DHT22;31711;47.158;7.346;2023-08-20T06:38:07;22.10;99.90
45983;DHT22;31711;47.158;7.346;2023-08-20T06:40:33;22.20;99.90
45983;DHT22;31711;47.158;7.346;2023-08-20T06:42:59;22.30;99.90
45983;DHT22;31711;47.158;7.346;2023-08-20T06:45:25;22.20;99.90
45983;DHT22;31711;47.158;7.346;2023-08-20T06:47:51;22.20;99.90
45983;DHT22;31711;47.158;7.346;2023-08-20T06:50:17;22.40;99.90
45983;DHT22;31711;47.158;7.346;2023-08-20T06:52:43;22.60;99.90
45983;DHT22;31711;47.158;7.346;2023-08-20T06:55:09;22.80;99.90
45983;DHT22;31711;47.158;7.346;2023-08-20T06:57:35;22.90;99.90
45983;DHT22;31711;47.158;7.346;2023-08-20T07:00:01;23.00;99.90
45983;DHT22;31711;47.158;7.346;2023-08-20T07:02:30;23.20;99.90
45983;DHT22;31711;47.158;7.346;2023-08-20T07:04:56;23.30;99.90
45983;DHT22;31711;47.158;7.346;2023-08-20T07:07:22;23.40;99.90
45983;DHT22;31711;47.158;7.346;2023-08-20T07:09:48;23.40;99.90
45983;DHT22;31711;47.158;7.346;2023-08-20T07:12:14;23.40;99.90
45983;DHT22;31711;47.158;7.346;2023-08-20T07:14:40;23.40;99.90
45983;DHT22;31711;47.158;7.346;2023-08-20T07:17:06;23.60;99.90
45983;DHT22;31711;47.158;7.346;2023-08-20T07:19:32;23.70;99.90
45983;DHT22;31711;47.158;7.346;2023-08-20T07:21:58;23.80;99.90
45983;DHT22;31711;47.158;7.346;2023-08-20T07:24:23;23.80;99.90
45983;DHT22;31711;47.158;7.346;2023-08-20T07:26:54;24.00;99.90
45983;DHT22;31711;47.158;7.346;2023-08-20T07:29:25;24.00;99.90
45983;DHT22;31711;47.158;7.346;2023-08-20T07:31:51;24.20;99.90
45983;DHT22;31711;47.158;7.346;2023-08-20T07:34:17;24.30;99.90
45983;DHT22;31711;47.158;7.346;2023-08-20T07:36:44;24.30;99.90
45983;DHT22;31711;47.158;7.346;2023-08-20T07:39:10;24.30;99.90
45983;DHT22;31711;47.158;7.346;2023-08-20T07:41:36;24.50;99.90
45983;DHT22;31711;47.158;7.346;2023-08-20T07:44:02;24.50;99.90
45983;DHT22;31711;47.158;7.346;2023-08-20T07:46:28;24.70;99.90
45983;DHT22;31711;47.158;7.346;2023-08-20T07:48:54;24.80;99.90
45983;DHT22;31711;47.158;7.346;2023-08-20T07:51:20;24.80;99.90
45983;DHT22;31711;47.158;7.346;2023-08-20T07:53:46;24.80;99.90
45983;DHT22;31711;47.158;7.346;2023-08-20T07:56:12;24.90;99.90
45983;DHT22;31711;47.158;7.346;2023-08-20T07:58:38;25.10;99.90
45983;DHT22;31711;47.158;7.346;2023-08-20T08:01:04;25.20;99.90
45983;DHT22;31711;47.158;7.346;2023-08-20T08:03:30;25.20;99.90
45983;DHT22;31711;47.158;7.346;2023-08-20T08:05:56;25.40;99.90
45983;DHT22;31711;47.158;7.346;2023-08-20T08:08:22;25.50;99.90
45983;DHT22;31711;47.158;7.346;2023-08-20T08:10:48;25.50;99.90
45983;DHT22;31711;47.158;7.346;2023-08-20T08:13:18;25.60;99.90
45983;DHT22;31711;47.158;7.346;2023-08-20T08:15:45;25.80;99.90
45983;DHT22;31711;47.158;7.346;2023-08-20T08:18:11;25.90;99.90
45983;DHT22;31711;47.158;7.346;2023-08-20T08:20:38;25.90;99.90
45983;DHT22;31711;47.158;7.346;2023-08-20T08:23:04;25.90;99.90
45983;DHT22;31711;47.158;7.346;2023-08-20T08:25:30;25.90;99.90
45983;DHT22;31711;47.158;7.346;2023-08-20T08:27:56;25.90;99.90
45983;DHT22;31711;47.158;7.346;2023-08-20T08:30:22;26.10;99.90
45983;DHT22;31711;47.158;7.346;2023-08-20T08:32:48;26.20;99.90
45983;DHT22;31711;47.158;7.346;2023-08-20T08:35:14;26.30;99.90
45983;DHT22;31711;47.158;7.346;2023-08-20T08:37:40;26.40;99.90
45983;DHT22;31711;47.158;7.346;2023-08-20T08:40:07;26.50;99.90
45983;DHT22;31711;47.158;7.346;2023-08-20T08:42:34;26.60;99.90
45983;DHT22;31711;47.158;7.346;2023-08-20T08:45:00;26.70;99.90
45983;DHT22;31711;47.158;7.346;2023-08-20T08:47:26;26.80;99.90
45983;DHT22;31711;47.158;7.346;2023-08-20T08:49:55;26.80;99.90
45983;DHT22;31711;47.158;7.346;2023-08-20T08:52:25;26.80;99.90
45983;DHT22;31711;47.158;7.346;2023-08-20T08:54:54;26.90;99.90
45983;DHT22;31711;47.158;7.346;2023-08-20T08:57:20;27.10;99.90
45983;DHT22;31711;47.158;7.346;2023-08-20T08:59:47;27.10;99.90
45983;DHT22;31711;47.158;7.346;2023-08-20T09:02:13;27.20;99.90
45983;DHT22;31711;47.158;7.346;2023-08-20T09:04:40;27.20;99.90
45983;DHT22;31711;47.158;7.346;2023-08-20T09:07:11;27.30;99.90
45983;DHT22;31711;47.158;7.346;2023-08-20T09:09:42;27.30;99.90
45983;DHT22;31711;47.158;7.346;2023-08-20T09:12:13;27.40;99.90
45983;DHT22;31711;47.158;7.346;2023-08-20T09:14:47;27.40;99.90
45983;DHT22;31711;47.158;7.346;2023-08-20T09:17:14;27.50;99.90
45983;DHT22;31711;47.158;7.346;2023-08-20T09:19:40;27.70;99.90
45983;DHT22;31711;47.158;7.346;2023-08-20T09:22:07;27.80;99.90
45983;DHT22;31711;47.158;7.346;2023-08-20T09:27:10;27.90;99.90
45983;DHT22;31711;47.158;7.346;2023-08-20T09:29:51;28.00;99.90
45983;DHT22;31711;47.158;7.346;2023-08-20T09:32:22;28.10;99.90
45983;DHT22;31711;47.158;7.346;2023-08-20T09:34:49;28.20;99.90
45983;DHT22;31711;47.158;7.346;2023-08-20T09:37:18;28.10;99.90
45983;DHT22;31711;47.158;7.346;2023-08-20T09:39:44;27.90;99.90
45983;DHT22;31711;47.158;7.346;2023-08-20T09:42:11;28.20;99.90
45983;DHT22;31711;47.158;7.346;2023-08-20T09:44:42;28.40;99.90
45983;DHT22;31711;47.158;7.346;2023-08-20T09:47:13;28.40;99.90
45983;DHT22;31711;47.158;7.346;2023-08-20T09:49:45;28.30;99.90
45983;DHT22;31711;47.158;7.346;2023-08-20T09:52:13;28.30;99.90
45983;DHT22;31711;47.158;7.346;2023-08-20T09:57:36;28.70;99.90
45983;DHT22;31711;47.158;7.346;2023-08-20T10:00:07;28.70;99.90
45983;DHT22;31711;47.158;7.346;2023-08-20T10:02:40;28.70;99.90
45983;DHT22;31711;47.158;7.346;2023-08-20T10:05:11;28.70;99.90
45983;DHT22;31711;47.158;7.346;2023-08-20T10:07:37;28.70;99.90
45983;DHT22;31711;47.158;7.346;2023-08-20T10:10:08;28.80;99.90
45983;DHT22;31711;47.158;7.346;2023-08-20T10:12:36;29.00;99.90
45983;DHT22;31711;47.158;7.346;2023-08-20T10:15:06;29.20;99.90
45983;DHT22;31711;47.158;7.346;2023-08-20T10:17:33;29.20;99.90
45983;DHT22;31711;47.158;7.346;2023-08-20T10:20:02;29.40;99.90
45983;DHT22;31711;47.158;7.346;2023-08-20T10:22:36;29.20;99.80
45983;DHT22;31711;47.158;7.346;2023-08-20T10:25:07;29.30;99.90
45983;DHT22;31711;47.158;7.346;2023-08-20T10:27:35;29.40;99.90
45983;DHT22;31711;47.158;7.346;2023-08-20T10:30:03;29.60;99.90
45983;DHT22;31711;47.158;7.346;2023-08-20T10:35:14;29.50;99.10
45983;DHT22;31711;47.158;7.346;2023-08-20T10:43:10;30.00;99.50
45983;DHT22;31711;47.158;7.346;2023-08-20T10:46:23;29.80;99.20
45983;DHT22;31711;47.158;7.346;2023-08-20T10:48:56;29.70;99.90
45983;DHT22;31711;47.158;7.346;2023-08-20T10:51:38;30.00;99.90
45983;DHT22;31711;47.158;7.346;2023-08-20T10:54:08;30.10;99.30
45983;DHT22;31711;47.158;7.346;2023-08-20T10:56:55;30.10;99.20
45983;DHT22;31711;47.158;7.346;2023-08-20T10:59:26;29.90;98.80
45983;DHT22;31711;47.158;7.346;2023-08-20T11:01:57;30.00;99.30
45983;DHT22;31711;47.158;7.346;2023-08-20T11:04:25;30.20;99.00
45983;DHT22;31711;47.158;7.346;2023-08-20T11:06:55;30.10;98.60
45983;DHT22;31711;47.158;7.346;2023-08-20T11:09:22;30.40;98.40
45983;DHT22;31711;47.158;7.346;2023-08-20T11:11:50;30.50;98.00
45983;DHT22;31711;47.158;7.346;2023-08-20T11:14:18;30.70;98.40
45983;DHT22;31711;47.158;7.346;2023-08-20T11:16:45;30.50;98.00
45983;DHT22;31711;47.158;7.346;2023-08-20T11:19:12;30.50;98.30
45983;DHT22;31711;47.158;7.346;2023-08-20T11:21:39;30.70;97.90
45983;DHT22;31711;47.158;7.346;2023-08-20T11:24:06;30.50;97.90
45983;DHT22;31711;47.158;7.346;2023-08-20T11:26:33;30.50;97.80
45983;DHT22;31711;47.158;7.346;2023-08-20T11:29:00;30.70;98.70
45983;DHT22;31711;47.158;7.346;2023-08-20T11:31:26;31.00;98.10
45983;DHT22;31711;47.158;7.346;2023-08-20T11:33:53;31.20;98.00
45983;DHT22;31711;47.158;7.346;2023-08-20T11:36:20;31.30;98.50
45983;DHT22;31711;47.158;7.346;2023-08-20T11:38:53;31.40;98.10
45983;DHT22;31711;47.158;7.346;2023-08-20T11:41:20;31.60;97.70
45983;DHT22;31711;47.158;7.346;2023-08-20T11:43:47;31.90;98.20
45983;DHT22;31711;47.158;7.346;2023-08-20T11:46:17;32.00;98.30
45983;DHT22;31711;47.158;7.346;2023-08-20T11:49:06;32.10;97.40
45983;DHT22;31711;47.158;7.346;2023-08-20T11:51:36;32.10;97.40
45983;DHT22;31711;47.158;7.346;2023-08-20T11:54:07;31.90;97.30
45983;DHT22;31711;47.158;7.346;2023-08-20T11:56:42;31.80;97.50
45983;DHT22;31711;47.158;7.346;2023-08-20T11:59:10;32.00;98.10
45983;DHT22;31711;47.158;7.346;2023-08-20T12:01:37;32.30;97.50
45983;DHT22;31711;47.158;7.346;2023-08-20T12:04:04;32.50;97.10
45983;DHT22;31711;47.158;7.346;2023-08-20T12:06:31;32.50;97.50
45983;DHT22;31711;47.158;7.346;2023-08-20T12:08:57;32.80;97.00
45983;DHT22;31711;47.158;7.346;2023-08-20T12:11:27;32.90;96.60
45983;DHT22;31711;47.158;7.346;2023-08-20T12:13:54;32.60;96.80
45983;DHT22;31711;47.158;7.346;2023-08-20T12:16:22;32.70;95.90
45983;DHT22;31711;47.158;7.346;2023-08-20T12:18:50;32.80;96.00
45983;DHT22;31711;47.158;7.346;2023-08-20T12:21:16;32.80;96.30
45983;DHT22;31711;47.158;7.346;2023-08-20T12:23:42;33.10;96.60
45983;DHT22;31711;47.158;7.346;2023-08-20T12:26:08;33.40;96.00
45983;DHT22;31711;47.158;7.346;2023-08-20T12:28:34;33.30;95.30
45983;DHT22;31711;47.158;7.346;2023-08-20T12:31:00;33.00;96.00
45983;DHT22;31711;47.158;7.346;2023-08-20T12:33:26;33.20;95.00
45983;DHT22;31711;47.158;7.346;2023-08-20T12:35:54;33.10;95.10
45983;DHT22;31711;47.158;7.346;2023-08-20T12:38:20;33.40;95.60
45983;DHT22;31711;47.158;7.346;2023-08-20T12:40:47;33.60;95.50
45983;DHT22;31711;47.158;7.346;2023-08-20T12:43:12;34.00;95.60
45983;DHT22;31711;47.158;7.346;2023-08-20T12:45:38;33.40;94.50
45983;DHT22;31711;47.158;7.346;2023-08-20T12:48:05;33.60;94.80
45983;DHT22;31711;47.158;7.346;2023-08-20T12:50:33;34.10;93.70
45983;DHT22;31711;47.158;7.346;2023-08-20T12:52:59;34.70;93.10
45983;DHT22;31711;47.158;7.346;2023-08-20T12:55:25;35.20;93.30
45983;DHT22;31711;47.158;7.346;2023-08-20T12:57:55;35.40;93.30
45983;DHT22;31711;47.158;7.346;2023-08-20T13:00:22;35.60;92.70
45983;DHT22;31711;47.158;7.346;2023-08-20T13:02:51;35.70;91.80
45983;DHT22;31711;47.158;7.346;2023-08-20T13:05:18;35.70;91.60
45983;DHT22;31711;47.158;7.346;2023-08-20T13:07:44;35.10;92.10
45983;DHT22;31711;47.158;7.346;2023-08-20T13:10:11;34.80;93.00
45983;DHT22;31711;47.158;7.346;2023-08-20T13:12:47;35.40;91.70
45983;DHT22;31711;47.158;7.346;2023-08-20T13:15:18;35.40;90.60
45983;DHT22;31711;47.158;7.346;2023-08-20T13:17:47;34.80;90.80
45983;DHT22;31711;47.158;7.346;2023-08-20T13:20:14;35.00;90.70
45983;DHT22;31711;47.158;7.346;2023-08-20T13:22:41;34.60;91.40
45983;DHT22;31711;47.158;7.346;2023-08-20T13:25:07;34.70;91.40
45983;DHT22;31711;47.158;7.346;2023-08-20T13:27:33;35.00;91.60
45983;DHT22;31711;47.158;7.346;2023-08-20T13:29:59;35.50;91.20
45983;DHT22;31711;47.158;7.346;2023-08-20T13:32:26;35.90;90.60
45983;DHT22;31711;47.158;7.346;2023-08-20T13:34:52;36.40;88.80
45983;DHT22;31711;47.158;7.346;2023-08-20T13:37:18;36.70;87.40
45983;DHT22;31711;47.158;7.346;2023-08-20T13:39:44;36.70;87.50
45983;DHT22;31711;47.158;7.346;2023-08-20T13:42:10;36.00;86.80
45983;DHT22;31711;47.158;7.346;2023-08-20T13:44:36;35.40;87.30
45983;DHT22;31711;47.158;7.346;2023-08-20T13:47:02;35.20;88.10
45983;DHT22;31711;47.158;7.346;2023-08-20T13:49:28;35.00;87.90
45983;DHT22;31711;47.158;7.346;2023-08-20T13:51:54;34.70;88.30
45983;DHT22;31711;47.158;7.346;2023-08-20T13:54:20;34.60;87.90
45983;DHT22;31711;47.158;7.346;2023-08-20T13:56:46;34.70;87.70
45983;DHT22;31711;47.158;7.346;2023-08-20T13:59:12;34.70;86.90
45983;DHT22;31711;47.158;7.346;2023-08-20T14:01:38;34.80;86.30
45983;DHT22;31711;47.158;7.346;2023-08-20T14:04:04;34.90;86.20
45983;DHT22;31711;47.158;7.346;2023-08-20T14:06:30;34.80;85.50
45983;DHT22;31711;47.158;7.346;2023-08-20T14:08:56;34.70;83.10
45983;DHT22;31711;47.158;7.346;2023-08-20T14:11:22;34.70;83.60
45983;DHT22;31711;47.158;7.346;2023-08-20T14:13:48;34.60;84.40
45983;DHT22;31711;47.158;7.346;2023-08-20T14:16:14;34.50;84.60
45983;DHT22;31711;47.158;7.346;2023-08-20T14:18:40;34.30;84.00
45983;DHT22;31711;47.158;7.346;2023-08-20T14:21:06;34.20;85.60
45983;DHT22;31711;47.158;7.346;2023-08-20T14:23:32;34.20;83.80
45983;DHT22;31711;47.158;7.346;2023-08-20T14:25:58;34.10;84.10
45983;DHT22;31711;47.158;7.346;2023-08-20T14:28:24;33.90;83.60
45983;DHT22;31711;47.158;7.346;2023-08-20T14:30:50;33.80;84.70
45983;DHT22;31711;47.158;7.346;2023-08-20T14:33:19;33.70;84.50
45983;DHT22;31711;47.158;7.346;2023-08-20T14:35:45;33.70;85.40
45983;DHT22;31711;47.158;7.346;2023-08-20T14:38:11;33.70;85.70
45983;DHT22;31711;47.158;7.346;2023-08-20T14:40:39;33.50;86.50
45983;DHT22;31711;47.158;7.346;2023-08-20T14:43:08;33.50;85.10
45983;DHT22;31711;47.158;7.346;2023-08-20T14:45:35;33.50;84.50
45983;DHT22;31711;47.158;7.346;2023-08-20T14:48:01;33.60;85.60
45983;DHT22;31711;47.158;7.346;2023-08-20T14:50:28;33.60;84.40
45983;DHT22;31711;47.158;7.346;2023-08-20T14:52:54;33.70;85.30
45983;DHT22;31711;47.158;7.346;2023-08-20T14:55:20;33.70;86.10
45983;DHT22;31711;47.158;7.346;2023-08-20T14:57:47;33.80;86.20
45983;DHT22;31711;47.158;7.346;2023-08-20T15:00:14;33.70;87.20
45983;DHT22;31711;47.158;7.346;2023-08-20T15:02:41;33.60;87.80
45983;DHT22;31711;47.158;7.346;2023-08-20T15:05:07;33.60;87.80
45983;DHT22;31711;47.158;7.346;2023-08-20T15:07:33;33.60;88.80
45983;DHT22;31711;47.158;7.346;2023-08-20T15:09:59;33.60;89.10
45983;DHT22;31711;47.158;7.346;2023-08-20T15:12:25;33.40;88.00
45983;DHT22;31711;47.158;7.346;2023-08-20T15:14:51;33.30;88.10
45983;DHT22;31711;47.158;7.346;2023-08-20T15:17:17;33.30;89.30
45983;DHT22;31711;47.158;7.346;2023-08-20T15:19:43;33.30;89.50
45983;DHT22;31711;47.158;7.346;2023-08-20T15:22:09;33.30;88.90
45983;DHT22;31711;47.158;7.346;2023-08-20T15:24:35;33.40;89.50
45983;DHT22;31711;47.158;7.346;2023-08-20T15:27:01;33.50;90.90
45983;DHT22;31711;47.158;7.346;2023-08-20T15:29:29;33.50;89.50
45983;DHT22;31711;47.158;7.346;2023-08-20T15:31:55;33.50;90.40
45983;DHT22;31711;47.158;7.346;2023-08-20T15:34:21;33.50;90.40
45983;DHT22;31711;47.158;7.346;2023-08-20T15:36:47;33.20;90.90
45983;DHT22;31711;47.158;7.346;2023-08-20T15:39:13;32.80;91.60
45983;DHT22;31711;47.158;7.346;2023-08-20T15:41:39;32.70;91.80
45983;DHT22;31711;47.158;7.346;2023-08-20T15:44:07;32.60;92.00
45983;DHT22;31711;47.158;7.346;2023-08-20T15:46:33;32.50;92.50
45983;DHT22;31711;47.158;7.346;2023-08-20T15:49:00;32.40;92.80
45983;DHT22;31711;47.158;7.346;2023-08-20T15:51:26;32.40;92.90